sensor_id;sensor_type;location;lat;lon;timestamp;pressure;altitude;pressure_sealevel;temperature;humidity
37856;BME280;23694;43.274;26.924;2023-04-20T00:00:47;98363.81;;;11.49;100.00
37856;BME280;23694;43.274;26.924;2023-04-20T00:03:14;98361.88;;;11.51;100.00
37856;BME280;23694;43.274;26.924;2023-04-20T00:05:40;98363.25;;;11.34;100.00
37856;BME280;23694;43.274;26.924;2023-04-20T00:08:06;98353.84;;;11.32;100.00
37856;BME280;23694;43.274;26.924;2023-04-20T00:10:33;98354.81;;;11.31;100.00
37856;BME280;23694;43.274;26.924;2023-04-20T00:12:59;98355.88;;;11.28;100.00
37856;BME280;23694;43.274;26.924;2023-04-20T00:15:25;98350.91;;;11.14;100.00
37856;BME280;23694;43.274;26.924;2023-04-20T00:17:51;98346.16;;;11.08;100.00
37856;BME280;23694;43.274;26.924;2023-04-20T00:20:18;98345.09;;;11.10;100.00
37856;BME280;23694;43.274;26.924;2023-04-20T00:22:44;98345.47;;;11.06;100.00
37856;BME280;23694;43.274;26.924;2023-04-20T00:25:10;98346.75;;;11.11;100.00
37856;BME280;23694;43.274;26.924;2023-04-20T00:27:36;98345.78;;;11.01;100.00
37856;BME280;23694;43.274;26.924;2023-04-20T00:30:02;98336.97;;;11.02;100.00
37856;BME280;23694;43.274;26.924;2023-04-20T00:32:29;98341.50;;;11.00;100.00
37856;BME280;23694;43.274;26.924;2023-04-20T00:34:55;98337.22;;;10.99;100.00
37856;BME280;23694;43.274;26.924;2023-04-20T00:37:21;98332.38;;;10.84;100.00
37856;BME280;23694;43.274;26.924;2023-04-20T00:39:50;98332.25;;;10.85;100.00
37856;BME280;23694;43.274;26.924;2023-04-20T00:42:17;98326.53;;;10.91;100.00
37856;BME280;23694;43.274;26.924;2023-04-20T00:44:43;98327.34;;;10.92;100.00
37856;BME280;23694;43.274;26.924;2023-04-20T00:47:09;98325.47;;;10.83;100.00
37856;BME280;23694;43.274;26.924;2023-04-20T00:49:35;98323.09;;;10.68;100.00
37856;BME280;23694;43.274;26.924;2023-04-20T00:52:03;98324.66;;;10.71;100.00
37856;BME280;23694;43.274;26.924;2023-04-20T00:54:30;98324.53;;;10.72;100.00
37856;BME280;23694;43.274;26.924;2023-04-20T00:56:57;98324.88;;;10.68;100.00
37856;BME280;23694;43.274;26.924;2023-04-20T00:59:24;98330.94;;;10.79;100.00
37856;BME280;23694;43.274;26.924;2023-04-20T01:01:50;98325.84;;;10.67;100.00
37856;BME280;23694;43.274;26.924;2023-04-20T01:04:16;98325.84;;;10.67;100.00
37856;BME280;23694;43.274;26.924;2023-04-20T01:06:43;98322.63;;;10.63;100.00
37856;BME280;23694;43.274;26.924;2023-04-20T01:09:09;98325.13;;;10.76;100.00
37856;BME280;23694;43.274;26.924;2023-04-20T01:11:36;98324.28;;;10.75;100.00
37856;BME280;23694;43.274;26.924;2023-04-20T01:14:02;98323.44;;;10.75;100.00
37856;BME280;23694;43.274;26.924;2023-04-20T01:16:29;98329.19;;;10.69;100.00
37856;BME280;23694;43.274;26.924;2023-04-20T01:18:56;98323.56;;;10.73;100.00
37856;BME280;23694;43.274;26.924;2023-04-20T01:21:22;98320.97;;;10.73;100.00
37856;BME280;23694;43.274;26.924;2023-04-20T01:23:49;98305.97;;;10.64;100.00
37856;BME280;23694;43.274;26.924;2023-04-20T01:26:17;98327.53;;;10.57;100.00
37856;BME280;23694;43.274;26.924;2023-04-20T01:28:44;98327.50;;;10.68;100.00
37856;BME280;23694;43.274;26.924;2023-04-20T01:31:11;98327.75;;;10.76;100.00
37856;BME280;23694;43.274;26.924;2023-04-20T01:33:38;98324.88;;;10.79;100.00
37856;BME280;23694;43.274;26.924;2023-04-20T01:36:05;98324.75;;;10.80;100.00
37856;BME280;23694;43.274;26.924;2023-04-20T01:38:32;98324.03;;;10.78;100.00
37856;BME280;23694;43.274;26.924;2023-04-20T01:41:01;98320.34;;;10.81;100.00
37856;BME280;23694;43.274;26.924;2023-04-20T01:43:27;98321.91;;;10.72;100.00
37856;BME280;23694;43.274;26.924;2023-04-20T01:45:53;98319.88;;;10.76;100.00
37856;BME280;23694;43.274;26.924;2023-04-20T01:48:19;98305.34;;;10.72;100.00
37856;BME280;23694;43.274;26.924;2023-04-20T01:50:49;98304.31;;;10.63;100.00
37856;BME280;23694;43.274;26.924;2023-04-20T01:53:16;98294.06;;;10.60;100.00
37856;BME280;23694;43.274;26.924;2023-04-20T01:55:42;98295.13;;;10.58;100.00
37856;BME280;23694;43.274;26.924;2023-04-20T01:58:08;98301.56;;;10.54;100.00
37856;BME280;23694;43.274;26.924;2023-04-20T02:00:34;98303.00;;;10.46;100.00
37856;BME280;23694;43.274;26.924;2023-04-20T02:03:00;98300.50;;;10.45;100.00
37856;BME280;23694;43.274;26.924;2023-04-20T02:05:26;98304.66;;;10.47;100.00
37856;BME280;23694;43.274;26.924;2023-04-20T02:07:52;98299.56;;;10.46;100.00
37856;BME280;23694;43.274;26.924;2023-04-20T02:10:18;98302.16;;;10.46;100.00
37856;BME280;23694;43.274;26.924;2023-04-20T02:12:44;98301.94;;;10.49;100.00
37856;BME280;23694;43.274;26.924;2023-04-20T02:15:11;98305.03;;;10.54;100.00
37856;BME280;23694;43.274;26.924;2023-04-20T02:17:37;98297.19;;;10.43;100.00
37856;BME280;23694;43.274;26.924;2023-04-20T02:20:03;98299.91;;;10.53;100.00
37856;BME280;23694;43.274;26.924;2023-04-20T02:22:34;98302.03;;;10.59;100.00
37856;BME280;23694;43.274;26.924;2023-04-20T02:25:01;98293.34;;;10.58;100.00
37856;BME280;23694;43.274;26.924;2023-04-20T02:27:27;98303.47;;;10.52;100.00
37856;BME280;23694;43.274;26.924;2023-04-20T02:29:53;98302.28;;;10.44;100.00
37856;BME280;23694;43.274;26.924;2023-04-20T02:32:19;98299.31;;;10.60;100.00
37856;BME280;23694;43.274;26.924;2023-04-20T02:34:45;98291.81;;;10.56;100.00
37856;BME280;23694;43.274;26.924;2023-04-20T02:37:11;98290.97;;;10.55;100.00
37856;BME280;23694;43.274;26.924;2023-04-20T02:39:37;98299.19;;;10.62;100.00
37856;BME280;23694;43.274;26.924;2023-04-20T02:42:04;98299.91;;;10.53;100.00
37856;BME280;23694;43.274;26.924;2023-04-20T02:44:30;98298.00;;;10.55;100.00
37856;BME280;23694;43.274;26.924;2023-04-20T02:46:56;98297.03;;;10.56;100.00
37856;BME280;23694;43.274;26.924;2023-04-20T02:49:22;98288.50;;;10.42;100.00
37856;BME280;23694;43.274;26.924;2023-04-20T02:51:48;98287.78;;;10.40;100.00
37856;BME280;23694;43.274;26.924;2023-04-20T02:54:15;98283.72;;;10.47;100.00
37856;BME280;23694;43.274;26.924;2023-04-20T02:56:41;98273.13;;;10.49;100.00
37856;BME280;23694;43.274;26.924;2023-04-20T02:59:07;98275.16;;;10.45;100.00
37856;BME280;23694;43.274;26.924;2023-04-20T03:01:34;98267.75;;;10.39;100.00
37856;BME280;23694;43.274;26.924;2023-04-20T03:04:00;98274.91;;;10.48;100.00
37856;BME280;23694;43.274;26.924;2023-04-20T03:06:26;98279.44;;;10.46;100.00
37856;BME280;23694;43.274;26.924;2023-04-20T03:08:52;98284.09;;;10.43;100.00
37856;BME280;23694;43.274;26.924;2023-04-20T03:11:18;98283.13;;;10.44;100.00
37856;BME280;23694;43.274;26.924;2023-04-20T03:13:45;98291.94;;;10.43;100.00
37856;BME280;23694;43.274;26.924;2023-04-20T03:16:11;98298.44;;;10.37;100.00
37856;BME280;23694;43.274;26.924;2023-04-20T03:18:37;98293.38;;;10.47;100.00
37856;BME280;23694;43.274;26.924;2023-04-20T03:21:03;98296.19;;;10.33;100.00
37856;BME280;23694;43.274;26.924;2023-04-20T03:23:29;98295.72;;;10.28;100.00
37856;BME280;23694;43.274;26.924;2023-04-20T03:25:55;98300.59;;;10.21;100.00
37856;BME280;23694;43.274;26.924;2023-04-20T03:28:22;98299.16;;;10.28;100.00
37856;BME280;23694;43.274;26.924;2023-04-20T03:30:48;98306.91;;;10.30;100.00
37856;BME280;23694;43.274;26.924;2023-04-20T03:33:14;98297.97;;;10.21;100.00
37856;BME280;23694;43.274;26.924;2023-04-20T03:35:40;98295.44;;;10.20;100.00
37856;BME280;23694;43.274;26.924;2023-04-20T03:38:07;98294.25;;;10.12;100.00
37856;BME280;23694;43.274;26.924;2023-04-20T03:40:33;98291.16;;;10.18;100.00
37856;BME280;23694;43.274;26.924;2023-04-20T03:42:59;98288.78;;;10.15;100.00
37856;BME280;23694;43.274;26.924;2023-04-20T03:45:26;98293.56;;;10.33;100.00
37856;BME280;23694;43.274;26.924;2023-04-20T03:47:52;98298.72;;;10.57;100.00
37856;BME280;23694;43.274;26.924;2023-04-20T03:50:18;98308.94;;;10.71;100.00
37856;BME280;23694;43.274;26.924;2023-04-20T03:52:44;98302.41;;;10.65;100.00
37856;BME280;23694;43.274;26.924;2023-04-20T03:55:10;98299.75;;;10.76;100.00
37856;BME280;23694;43.274;26.924;2023-04-20T03:57:36;98298.28;;;11.06;100.00
37856;BME280;23694;43.274;26.924;2023-04-20T04:00:03;98305.31;;;11.37;100.00
37856;BME280;23694;43.274;26.924;2023-04-20T04:02:30;98301.63;;;11.72;100.00
37856;BME280;23694;43.274;26.924;2023-04-20T04:04:56;98298.56;;;11.88;100.00
37856;BME280;23694;43.274;26.924;2023-04-20T04:07:22;98311.25;;;12.34;99.21
37856;BME280;23694;43.274;26.924;2023-04-20T04:09:48;98308.25;;;12.79;95.87
37856;BME280;23694;43.274;26.924;2023-04-20T04:12:14;98314.50;;;13.18;90.61
37856;BME280;23694;43.274;26.924;2023-04-20T04:14:40;98309.81;;;13.41;88.47
37856;BME280;23694;43.274;26.924;2023-04-20T04:17:06;98312.16;;;13.53;87.83
37856;BME280;23694;43.274;26.924;2023-04-20T04:19:32;98314.50;;;13.85;85.17
37856;BME280;23694;43.274;26.924;2023-04-20T04:21:58;98303.75;;;14.25;82.78
37856;BME280;23694;43.274;26.924;2023-04-20T04:24:24;98325.06;;;14.51;80.70
37856;BME280;23694;43.274;26.924;2023-04-20T04:26:52;98325.56;;;14.65;79.93
37856;BME280;23694;43.274;26.924;2023-04-20T04:29:21;98329.22;;;14.81;78.94
37856;BME280;23694;43.274;26.924;2023-04-20T04:31:48;98325.25;;;15.05;76.67
37856;BME280;23694;43.274;26.924;2023-04-20T04:34:14;98328.28;;;15.28;74.57
37856;BME280;23694;43.274;26.924;2023-04-20T04:36:40;98339.75;;;15.64;72.87
37856;BME280;23694;43.274;26.924;2023-04-20T04:39:06;98345.06;;;15.09;74.57
37856;BME280;23694;43.274;26.924;2023-04-20T04:41:32;98343.81;;;15.31;74.85
37856;BME280;23694;43.274;26.924;2023-04-20T04:43:58;98348.78;;;15.97;70.40
37856;BME280;23694;43.274;26.924;2023-04-20T04:46:24;98345.34;;;15.61;70.32
37856;BME280;23694;43.274;26.924;2023-04-20T04:48:52;98345.56;;;16.11;68.80
37856;BME280;23694;43.274;26.924;2023-04-20T04:51:18;98349.56;;;16.33;67.26
37856;BME280;23694;43.274;26.924;2023-04-20T04:53:44;98347.56;;;16.61;65.91
37856;BME280;23694;43.274;26.924;2023-04-20T04:56:12;98353.16;;;16.58;66.69
37856;BME280;23694;43.274;26.924;2023-04-20T04:58:38;98352.50;;;16.56;65.87
37856;BME280;23694;43.274;26.924;2023-04-20T05:01:04;98357.53;;;16.93;63.85
37856;BME280;23694;43.274;26.924;2023-04-20T05:03:30;98365.31;;;16.94;63.91
37856;BME280;23694;43.274;26.924;2023-04-20T05:05:56;98363.41;;;16.87;63.47
37856;BME280;23694;43.274;26.924;2023-04-20T05:08:22;98372.09;;;16.97;63.53
37856;BME280;23694;43.274;26.924;2023-04-20T05:10:51;98363.78;;;17.42;61.50
37856;BME280;23694;43.274;26.924;2023-04-20T05:13:17;98371.84;;;17.83;59.64
37856;BME280;23694;43.274;26.924;2023-04-20T05:15:43;98357.44;;;18.18;57.84
37856;BME280;23694;43.274;26.924;2023-04-20T05:18:09;98356.91;;;18.71;56.70
37856;BME280;23694;43.274;26.924;2023-04-20T05:20:35;98351.44;;;18.56;55.73
37856;BME280;23694;43.274;26.924;2023-04-20T05:23:01;98352.81;;;17.87;57.98
37856;BME280;23694;43.274;26.924;2023-04-20T05:25:28;98361.38;;;17.65;58.89
37856;BME280;23694;43.274;26.924;2023-04-20T05:27:54;98358.50;;;17.50;59.38
37856;BME280;23694;43.274;26.924;2023-04-20T05:30:20;98362.63;;;17.44;60.09
37856;BME280;23694;43.274;26.924;2023-04-20T05:32:47;98364.22;;;18.45;57.10
37856;BME280;23694;43.274;26.924;2023-04-20T05:35:13;98355.75;;;18.65;55.12
37856;BME280;23694;43.274;26.924;2023-04-20T05:37:39;98359.59;;;19.41;53.73
37856;BME280;23694;43.274;26.924;2023-04-20T05:40:06;98364.22;;;19.78;51.04
37856;BME280;23694;43.274;26.924;2023-04-20T05:42:32;98364.31;;;18.84;54.13
37856;BME280;23694;43.274;26.924;2023-04-20T05:44:58;98369.97;;;18.81;54.82
37856;BME280;23694;43.274;26.924;2023-04-20T05:47:24;98372.03;;;18.22;56.81
37856;BME280;23694;43.274;26.924;2023-04-20T05:49:55;98370.84;;;17.67;58.50
37856;BME280;23694;43.274;26.924;2023-04-20T05:52:21;98378.53;;;16.94;62.25
37856;BME280;23694;43.274;26.924;2023-04-20T05:54:47;98380.63;;;15.77;67.63
37856;BME280;23694;43.274;26.924;2023-04-20T05:57:14;98367.91;;;14.90;71.93
37856;BME280;23694;43.274;26.924;2023-04-20T05:59:40;98373.91;;;14.26;75.70
37856;BME280;23694;43.274;26.924;2023-04-20T06:02:06;98378.53;;;13.76;80.47
37856;BME280;23694;43.274;26.924;2023-04-20T06:04:32;98380.88;;;13.10;84.40
37856;BME280;23694;43.274;26.924;2023-04-20T06:06:58;98378.31;;;12.99;85.74
37856;BME280;23694;43.274;26.924;2023-04-20T06:09:25;98388.75;;;13.10;85.87
37856;BME280;23694;43.274;26.924;2023-04-20T06:11:51;98397.81;;;12.96;86.60
37856;BME280;23694;43.274;26.924;2023-04-20T06:14:17;98391.59;;;12.97;86.86
37856;BME280;23694;43.274;26.924;2023-04-20T06:16:43;98395.69;;;12.81;86.24
37856;BME280;23694;43.274;26.924;2023-04-20T06:19:11;98399.00;;;12.52;88.51
37856;BME280;23694;43.274;26.924;2023-04-20T06:21:38;98393.31;;;12.47;89.12
37856;BME280;23694;43.274;26.924;2023-04-20T06:24:04;98381.34;;;12.13;91.83
37856;BME280;23694;43.274;26.924;2023-04-20T06:26:30;98395.16;;;12.15;93.25
37856;BME280;23694;43.274;26.924;2023-04-20T06:28:56;98401.69;;;12.20;92.73
37856;BME280;23694;43.274;26.924;2023-04-20T06:31:22;98399.19;;;11.98;94.51
37856;BME280;23694;43.274;26.924;2023-04-20T06:33:48;98398.03;;;11.91;95.10
37856;BME280;23694;43.274;26.924;2023-04-20T06:36:14;98395.66;;;11.88;96.19
37856;BME280;23694;43.274;26.924;2023-04-20T06:38:40;98395.47;;;12.00;95.63
37856;BME280;23694;43.274;26.924;2023-04-20T06:41:06;98397.97;;;12.02;95.15
37856;BME280;23694;43.274;26.924;2023-04-20T06:43:32;98401.25;;;11.94;95.41
37856;BME280;23694;43.274;26.924;2023-04-20T06:45:58;98406.28;;;11.86;95.82
37856;BME280;23694;43.274;26.924;2023-04-20T06:48:24;98397.03;;;11.71;96.55
37856;BME280;23694;43.274;26.924;2023-04-20T06:50:51;98395.44;;;11.68;98.23
37856;BME280;23694;43.274;26.924;2023-04-20T06:53:17;98400.34;;;11.84;98.31
37856;BME280;23694;43.274;26.924;2023-04-20T06:55:43;98401.63;;;11.90;98.07
37856;BME280;23694;43.274;26.924;2023-04-20T06:58:09;98405.84;;;11.81;97.72
37856;BME280;23694;43.274;26.924;2023-04-20T07:00:35;98406.38;;;11.96;97.35
37856;BME280;23694;43.274;26.924;2023-04-20T07:03:01;98412.69;;;11.93;97.43
37856;BME280;23694;43.274;26.924;2023-04-20T07:05:28;98416.59;;;11.78;97.87
37856;BME280;23694;43.274;26.924;2023-04-20T07:07:54;98414.16;;;11.86;97.45
37856;BME280;23694;43.274;26.924;2023-04-20T07:10:20;98410.81;;;11.84;96.92
37856;BME280;23694;43.274;26.924;2023-04-20T07:12:46;98411.81;;;11.72;97.67
37856;BME280;23694;43.274;26.924;2023-04-20T07:15:13;98421.91;;;11.77;98.36
37856;BME280;23694;43.274;26.924;2023-04-20T07:17:39;98422.41;;;11.82;97.38
37856;BME280;23694;43.274;26.924;2023-04-20T07:20:06;98421.44;;;11.83;96.63
37856;BME280;23694;43.274;26.924;2023-04-20T07:22:35;98416.66;;;11.88;96.72
37856;BME280;23694;43.274;26.924;2023-04-20T07:25:03;98415.13;;;11.85;97.05
37856;BME280;23694;43.274;26.924;2023-04-20T07:27:30;98415.94;;;11.86;97.11
37856;BME280;23694;43.274;26.924;2023-04-20T07:29:59;98412.69;;;11.93;97.75
37856;BME280;23694;43.274;26.924;2023-04-20T07:32:26;98417.06;;;12.04;97.50
37856;BME280;23694;43.274;26.924;2023-04-20T07:34:52;98420.59;;;12.14;96.85
37856;BME280;23694;43.274;26.924;2023-04-20T07:37:18;98416.75;;;12.18;96.96
37856;BME280;23694;43.274;26.924;2023-04-20T07:39:44;98422.63;;;12.31;95.98
37856;BME280;23694;43.274;26.924;2023-04-20T07:42:10;98424.56;;;12.29;95.43
37856;BME280;23694;43.274;26.924;2023-04-20T07:44:36;98421.94;;;12.29;96.49
37856;BME280;23694;43.274;26.924;2023-04-20T07:47:03;98422.19;;;12.26;96.68
37856;BME280;23694;43.274;26.924;2023-04-20T07:49:29;98425.47;;;12.40;95.57
37856;BME280;23694;43.274;26.924;2023-04-20T07:51:55;98420.72;;;12.54;94.31
37856;BME280;23694;43.274;26.924;2023-04-20T07:54:21;98424.13;;;12.66;93.77
37856;BME280;23694;43.274;26.924;2023-04-20T07:56:47;98420.31;;;12.80;92.70
37856;BME280;23694;43.274;26.924;2023-04-20T07:59:13;98414.91;;;12.81;92.70
37856;BME280;23694;43.274;26.924;2023-04-20T08:01:40;98418.63;;;12.79;93.23
37856;BME280;23694;43.274;26.924;2023-04-20T08:04:06;98418.91;;;12.76;93.59
37856;BME280;23694;43.274;26.924;2023-04-20T08:06:32;98430.31;;;12.95;92.33
37856;BME280;23694;43.274;26.924;2023-04-20T08:08:58;98435.31;;;12.98;91.32
37856;BME280;23694;43.274;26.924;2023-04-20T08:11:24;98435.53;;;13.07;91.03
37856;BME280;23694;43.274;26.924;2023-04-20T08:13:51;98430.59;;;12.92;90.97
37856;BME280;23694;43.274;26.924;2023-04-20T08:16:17;98437.94;;;12.98;90.51
37856;BME280;23694;43.274;26.924;2023-04-20T08:18:43;98433.09;;;12.94;90.97
37856;BME280;23694;43.274;26.924;2023-04-20T08:21:09;98433.91;;;12.94;90.85
37856;BME280;23694;43.274;26.924;2023-04-20T08:23:35;98432.22;;;12.84;91.63
37856;BME280;23694;43.274;26.924;2023-04-20T08:26:02;98441.59;;;12.77;91.74
37856;BME280;23694;43.274;26.924;2023-04-20T08:28:29;98438.56;;;12.81;90.88
37856;BME280;23694;43.274;26.924;2023-04-20T08:30:55;98442.72;;;12.84;90.45
37856;BME280;23694;43.274;26.924;2023-04-20T08:33:22;98432.47;;;12.81;89.27
37856;BME280;23694;43.274;26.924;2023-04-20T08:35:51;98428.63;;;12.85;89.88
37856;BME280;23694;43.274;26.924;2023-04-20T08:38:17;98434.09;;;12.72;91.84
37856;BME280;23694;43.274;26.924;2023-04-20T08:40:43;98441.72;;;12.75;90.92
37856;BME280;23694;43.274;26.924;2023-04-20T08:43:09;98440.88;;;12.75;90.49
37856;BME280;23694;43.274;26.924;2023-04-20T08:45:36;98441.84;;;12.74;90.23
37856;BME280;23694;43.274;26.924;2023-04-20T08:48:06;98444.34;;;12.75;89.99
37856;BME280;23694;43.274;26.924;2023-04-20T08:50:34;98439.34;;;12.72;90.37
37856;BME280;23694;43.274;26.924;2023-04-20T08:53:03;98444.31;;;12.96;90.62
37856;BME280;23694;43.274;26.924;2023-04-20T08:55:29;98447.47;;;12.90;90.97
37856;BME280;23694;43.274;26.924;2023-04-20T08:57:55;98443.97;;;13.10;90.13
37856;BME280;23694;43.274;26.924;2023-04-20T09:00:21;98447.22;;;13.23;89.00
37856;BME280;23694;43.274;26.924;2023-04-20T09:02:54;98434.50;;;13.28;88.32
37856;BME280;23694;43.274;26.924;2023-04-20T09:05:28;98448.09;;;13.33;87.25
37856;BME280;23694;43.274;26.924;2023-04-20T09:07:58;98449.72;;;13.25;87.40
37856;BME280;23694;43.274;26.924;2023-04-20T09:10:26;98457.22;;;13.29;87.70
37856;BME280;23694;43.274;26.924;2023-04-20T09:13:03;98452.94;;;13.38;86.99
37856;BME280;23694;43.274;26.924;2023-04-20T09:15:30;98449.34;;;13.39;86.95
37856;BME280;23694;43.274;26.924;2023-04-20T09:17:56;98454.63;;;13.39;87.44
37856;BME280;23694;43.274;26.924;2023-04-20T09:20:33;98456.03;;;13.53;87.75
37856;BME280;23694;43.274;26.924;2023-04-20T09:23:19;98453.13;;;13.56;87.99
37856;BME280;23694;43.274;26.924;2023-04-20T09:25:50;98458.13;;;13.59;87.88
37856;BME280;23694;43.274;26.924;2023-04-20T09:28:17;98458.50;;;13.45;87.83
37856;BME280;23694;43.274;26.924;2023-04-20T09:30:45;98457.25;;;13.39;88.98
37856;BME280;23694;43.274;26.924;2023-04-20T09:33:13;98457.53;;;13.46;89.38
37856;BME280;23694;43.274;26.924;2023-04-20T09:35:43;98456.81;;;13.34;88.32
37856;BME280;23694;43.274;26.924;2023-04-20T09:38:14;98458.44;;;13.25;88.27
37856;BME280;23694;43.274;26.924;2023-04-20T09:40:41;98457.91;;;13.31;89.29
37856;BME280;23694;43.274;26.924;2023-04-20T09:43:17;98452.53;;;13.33;89.59
37856;BME280;23694;43.274;26.924;2023-04-20T09:45:43;98450.75;;;13.43;89.91
37856;BME280;23694;43.274;26.924;2023-04-20T09:48:10;98451.31;;;13.47;89.74
37856;BME280;23694;43.274;26.924;2023-04-20T09:50:37;98443.88;;;13.61;88.89
37856;BME280;23694;43.274;26.924;2023-04-20T09:53:04;98442.38;;;13.69;88.88
37856;BME280;23694;43.274;26.924;2023-04-20T09:55:31;98445.59;;;13.82;86.90
37856;BME280;23694;43.274;26.924;2023-04-20T09:57:58;98451.13;;;13.88;85.14
37856;BME280;23694;43.274;26.924;2023-04-20T10:00:26;98443.91;;;13.81;86.25
37856;BME280;23694;43.274;26.924;2023-04-20T10:02:53;98439.34;;;14.02;86.12
37856;BME280;23694;43.274;26.924;2023-04-20T10:05:31;98439.63;;;14.18;85.27
37856;BME280;23694;43.274;26.924;2023-04-20T10:07:58;98439.91;;;14.35;83.86
37856;BME280;23694;43.274;26.924;2023-04-20T10:10:26;98429.66;;;14.32;85.44
37856;BME280;23694;43.274;26.924;2023-04-20T10:12:54;98432.00;;;14.54;84.86
37856;BME280;23694;43.274;26.924;2023-04-20T10:15:21;98430.81;;;14.76;83.84
37856;BME280;23694;43.274;26.924;2023-04-20T10:17:49;98421.06;;;14.96;83.29
37856;BME280;23694;43.274;26.924;2023-04-20T10:20:23;98420.94;;;14.97;82.68
37856;BME280;23694;43.274;26.924;2023-04-20T10:22:51;98421.72;;;15.07;81.90
37856;BME280;23694;43.274;26.924;2023-04-20T10:25:19;98419.97;;;15.26;81.63
37856;BME280;23694;43.274;26.924;2023-04-20T10:27:57;98420.44;;;15.39;78.01
37856;BME280;23694;43.274;26.924;2023-04-20T10:30:25;98423.09;;;15.66;77.61
37856;BME280;23694;43.274;26.924;2023-04-20T10:38:09;98432.13;;;15.36;74.72
37856;BME280;23694;43.274;26.924;2023-04-20T10:40:36;98430.59;;;15.34;71.81
37856;BME280;23694;43.274;26.924;2023-04-20T10:43:03;98428.41;;;15.02;73.15
37856;BME280;23694;43.274;26.924;2023-04-20T10:45:33;98439.34;;;15.07;73.15
37856;BME280;23694;43.274;26.924;2023-04-20T10:48:08;98441.25;;;15.14;71.13
37856;BME280;23694;43.274;26.924;2023-04-20T10:50:34;98436.56;;;15.08;70.15
37856;BME280;23694;43.274;26.924;2023-04-20T10:53:00;98439.31;;;15.16;70.90
37856;BME280;23694;43.274;26.924;2023-04-20T10:55:27;98432.91;;;15.19;70.44
37856;BME280;23694;43.274;26.924;2023-04-20T10:57:53;98445.50;;;14.98;71.23
37856;BME280;23694;43.274;26.924;2023-04-20T11:00:22;98431.09;;;15.19;70.76
37856;BME280;23694;43.274;26.924;2023-04-20T11:02:53;98435.09;;;15.23;70.84
37856;BME280;23694;43.274;26.924;2023-04-20T11:05:22;98436.63;;;15.26;69.92
37856;BME280;23694;43.274;26.924;2023-04-20T11:07:53;98436.56;;;15.08;70.55
37856;BME280;23694;43.274;26.924;2023-04-20T11:10:20;98446.81;;;15.11;71.52
37856;BME280;23694;43.274;26.924;2023-04-20T11:12:47;98433.69;;;14.92;71.05
37856;BME280;23694;43.274;26.924;2023-04-20T11:15:13;98443.84;;;14.97;72.14
37856;BME280;23694;43.274;26.924;2023-04-20T11:17:41;98441.94;;;15.16;72.08
37856;BME280;23694;43.274;26.924;2023-04-20T11:20:11;98435.00;;;15.15;70.67
37856;BME280;23694;43.274;26.924;2023-04-20T11:22:40;98436.75;;;15.25;69.97
37856;BME280;23694;43.274;26.924;2023-04-20T11:25:08;98441.44;;;15.31;70.45
37856;BME280;23694;43.274;26.924;2023-04-20T11:27:34;98442.78;;;15.17;69.70
37856;BME280;23694;43.274;26.924;2023-04-20T11:30:01;98437.34;;;15.18;69.97
37856;BME280;23694;43.274;26.924;2023-04-20T11:32:31;98436.75;;;15.25;69.47
37856;BME280;23694;43.274;26.924;2023-04-20T11:35:05;98432.31;;;15.25;70.67
37856;BME280;23694;43.274;26.924;2023-04-20T11:37:33;98429.72;;;15.15;70.50
37856;BME280;23694;43.274;26.924;2023-04-20T11:40:04;98431.81;;;15.12;72.06
37856;BME280;23694;43.274;26.924;2023-04-20T11:42:32;98428.16;;;15.22;71.04
37856;BME280;23694;43.274;26.924;2023-04-20T11:44:58;98421.41;;;15.38;70.14
37856;BME280;23694;43.274;26.924;2023-04-20T11:47:25;98432.22;;;15.17;69.77
37856;BME280;23694;43.274;26.924;2023-04-20T11:49:51;98431.97;;;15.10;69.59
37856;BME280;23694;43.274;26.924;2023-04-20T11:52:17;98429.63;;;15.07;70.37
37856;BME280;23694;43.274;26.924;2023-04-20T11:54:43;98424.13;;;14.91;71.22
37856;BME280;23694;43.274;26.924;2023-04-20T11:57:09;98429.72;;;14.78;73.63
37856;BME280;23694;43.274;26.924;2023-04-20T11:59:35;98433.47;;;14.76;73.18
37856;BME280;23694;43.274;26.924;2023-04-20T12:02:01;98434.72;;;14.72;72.04
37856;BME280;23694;43.274;26.924;2023-04-20T12:04:29;98426.66;;;14.73;70.88
37856;BME280;23694;43.274;26.924;2023-04-20T12:06:56;98433.53;;;14.56;70.71
37856;BME280;23694;43.274;26.924;2023-04-20T12:09:25;98428.56;;;14.44;70.68
37856;BME280;23694;43.274;26.924;2023-04-20T12:11:51;98421.31;;;14.55;69.41
37856;BME280;23694;43.274;26.924;2023-04-20T12:14:17;98428.38;;;14.55;69.87
37856;BME280;23694;43.274;26.924;2023-04-20T12:16:44;98425.88;;;14.63;66.88
37856;BME280;23694;43.274;26.924;2023-04-20T12:19:10;98423.91;;;14.65;66.76
37856;BME280;23694;43.274;26.924;2023-04-20T12:21:36;98429.97;;;14.85;68.14
37856;BME280;23694;43.274;26.924;2023-04-20T12:24:02;98423.44;;;14.89;67.63
37856;BME280;23694;43.274;26.924;2023-04-20T12:26:29;98413.66;;;15.09;66.54
37856;BME280;23694;43.274;26.924;2023-04-20T12:28:56;98419.06;;;15.35;66.48
37856;BME280;23694;43.274;26.924;2023-04-20T12:31:22;98406.19;;;15.49;63.02
37856;BME280;23694;43.274;26.924;2023-04-20T12:33:49;98408.25;;;15.55;64.73
37856;BME280;23694;43.274;26.924;2023-04-20T12:36:15;98407.88;;;15.78;64.99
37856;BME280;23694;43.274;26.924;2023-04-20T12:38:42;98408.53;;;15.98;64.04
37856;BME280;23694;43.274;26.924;2023-04-20T12:41:12;98400.38;;;16.09;61.80
37856;BME280;23694;43.274;26.924;2023-04-20T12:43:39;98385.88;;;16.31;60.65
37856;BME280;23694;43.274;26.924;2023-04-20T12:46:05;98391.38;;;16.20;60.81
37856;BME280;23694;43.274;26.924;2023-04-20T12:48:31;98391.38;;;16.37;59.21
37856;BME280;23694;43.274;26.924;2023-04-20T12:50:57;98385.50;;;16.52;59.59